CSUN New Campus Station -PST Time - Most Recent Data on bottom of page




           Date/Time      Avg      Avg      Max     Wind      Avg      Max      Min      Avg      Avg    Total      Avg     Batt
                         Wind     Wind     Wind      Dir     Temp     Temp     Temp       RH      Bar     Rain    Solar     Volt
                      Spd MPH      Dir  Spd MPH   at Max    Deg_F    Deg_F    Deg_F        % Press_mb   Inches     W/m2      Min
--------------------------------------------------------------------------------------------------------------------------------
    08/24/2016 00:00      0.6      100      3.7       75     70.0     70.6     69.5       58     1015     0.00        0     13.3
    08/24/2016 00:15      1.7       82      3.2       74     69.8     70.0     69.7       59     1015     0.00        0     13.3
    08/24/2016 00:30      1.0       78      2.3       59     69.6     69.8     69.4       58     1015     0.00        0     13.3
    08/24/2016 00:45      0.4       92      1.8       95     69.3     69.8     68.7       59     1015     0.00        0     13.3
    08/24/2016 01:00      0.1       83      1.7       91     68.4     69.0     68.0       61     1015     0.00        0     13.3
    08/24/2016 01:15      0.4       59      2.1       54     68.4     68.7     68.0       60     1015     0.00        0     13.3
    08/24/2016 01:30      1.1       63      3.1       47     68.8     69.0     68.3       60     1015     0.00        0     13.3
    08/24/2016 01:45      1.2       69      4.1       77     68.5     68.9     68.2       61     1015     0.00        0     13.3
    08/24/2016 02:00      0.6       72      2.4       73     68.1     68.4     67.8       62     1015     0.00        0     13.3
    08/24/2016 02:15      0.1       47      2.1       52     67.6     68.1     66.8       64     1015     0.00        0     13.3
    08/24/2016 02:30      0.0       34      1.4       26     66.8     67.1     66.5       65     1015     0.00        0     13.3
    08/24/2016 02:45      0.4       62      1.6       57     66.9     67.4     66.5       63     1015     0.00        0     13.3
    08/24/2016 03:00      0.4       79      1.8      103     66.6     67.2     66.2       64     1015     0.00        0     13.3
    08/24/2016 03:15      0.4       51      1.7       69     66.5     66.7     66.1       64     1015     0.00        0     13.3
    08/24/2016 03:30      0.1       83      1.0       62     66.2     66.6     65.7       64     1015     0.00        0     13.3
    08/24/2016 03:45      0.0        0      0.0      289     65.6     66.0     65.2       67     1015     0.00        0     13.3
    08/24/2016 04:00      0.0        0      0.0      301     65.1     65.4     64.8       66     1015     0.00        0     13.3
    08/24/2016 04:15      0.0        0      0.0      313     64.9     65.2     64.7       66     1015     0.00        0     13.3
    08/24/2016 04:30      0.0      345      0.0      344     65.2     65.5     64.9       65     1015     0.00        0     13.3
    08/24/2016 04:45      0.5      101      2.1       83     64.9     65.3     64.6       65     1015     0.00        0     13.4
    08/24/2016 05:00      0.2       77      1.4       78     65.1     65.4     64.7       64     1015     0.00        0     13.4
    08/24/2016 05:15      0.0      343      0.0        3     64.7     65.0     64.4       64     1015     0.00        0     13.4
    08/24/2016 05:30      0.0      270      0.0      270     64.3     64.6     64.0       65     1015     0.00        3     13.4
    08/24/2016 05:45      0.0        0      0.0      272     64.0     64.3     63.6       66     1015     0.00       13     13.4
    08/24/2016 06:00      0.0        0      0.0      237     63.8     64.1     63.5       67     1016     0.00       25     13.4
    08/24/2016 06:15      0.0      221      0.0      221     64.4     65.0     63.9       66     1016     0.00       41     13.4
    08/24/2016 06:30      0.2      144      1.2       52     65.8     67.4     64.8       61     1016     0.00      117     13.3
    08/24/2016 06:45      0.3      124      1.8       82     68.7     69.8     67.2       56     1016     0.00      158     13.3
    08/24/2016 07:00      0.9      206      2.4      285     69.4     70.0     69.0       58     1016     0.00      207     13.3
    08/24/2016 07:15      0.7      187      3.1      178     70.0     70.5     69.4       56     1016     0.00      255     13.3
    08/24/2016 07:30      0.9      176      2.7      152     70.8     72.1     69.9       53     1016     0.00      305     13.3
    08/24/2016 07:45      1.1      158      2.6      195     72.6     73.0     72.0       50     1016     0.00      353     13.2
    08/24/2016 08:00      1.3      161      5.3      161     73.5     75.1     72.1       48     1016     0.00      401     13.2
    08/24/2016 08:15      2.1      177      4.2      152     73.5     74.7     73.1       50     1016     0.00      447     13.2
    08/24/2016 08:30      0.9      152      3.4      164     75.5     76.3     73.8       43     1016     0.00      497     13.2
    08/24/2016 08:45      1.1      140      5.6      139     76.7     77.4     76.0       40     1016     0.00      540     13.2
    08/24/2016 09:00      1.7      138      4.6      149     77.3     78.1     76.8       38     1016     0.00      584     13.1
    08/24/2016 09:15      2.1      186      5.3      166     77.6     78.1     77.3       38     1016     0.00      625     13.1
    08/24/2016 09:30      2.0      161      5.6      155     79.8     81.0     77.8       32     1016     0.00      669     13.1
    08/24/2016 09:45      1.5      167      5.0      171     80.7     81.7     79.8       32     1016     0.00      701     13.1
    08/24/2016 10:00      1.4      137      4.5      145     81.6     82.4     80.5       30     1016     0.00      730     13.1
    08/24/2016 10:15      2.8       95      6.5       88     82.0     82.8     81.4       28     1016     0.00      755     13.1
    08/24/2016 10:30      2.7      117      6.4       77     83.1     83.8     82.5       28     1015     0.00      757     13.0
    08/24/2016 10:45      3.5      174      7.5      144     83.9     85.3     83.0       26     1015     0.00      789     13.0
    08/24/2016 11:00      1.7      169      5.6      148     85.1     85.7     84.4       26     1015     0.00      807     13.0
    08/24/2016 11:15      2.1      152      6.0      159     85.8     86.7     85.2       26     1015     0.00      793     13.0
    08/24/2016 11:30      2.4      181      6.0      151     86.2     87.0     85.4       27     1015     0.00      801     13.0
    08/24/2016 11:45      3.0      194      8.0      151     87.1     88.4     86.1       26     1014     0.00      837     13.0
    08/24/2016 12:00      2.7      143      7.0      168     88.1     89.1     87.3       23     1014     0.00      848     13.0
    08/24/2016 12:15      1.8      236      4.8      226     89.4     90.2     88.8       23     1014     0.00      852     13.0
    08/24/2016 12:30      2.7      273      6.6      206     89.6     90.5     89.1       23     1014     0.00      847     13.0
    08/24/2016 12:45      3.2      155      8.2      133     90.3     91.6     89.1       23     1014     0.00      844     13.0
    08/24/2016 13:00      4.1       98      8.6       84     90.8     91.2     90.3       23     1013     0.00      832     13.0
    08/24/2016 13:15      3.7      131     10.8      157     91.7     92.3     90.6       22     1013     0.00      820     13.0
    08/24/2016 13:30      4.8      150     11.0      155     92.1     93.7     91.3       21     1013     0.00      792     13.0
    08/24/2016 13:45      3.9      140      8.7      145     92.8     93.7     92.2       21     1013     0.00      769     13.0
    08/24/2016 14:00      4.6      132      9.1      162     92.7     93.3     91.6       24     1013     0.00      743     13.0
    08/24/2016 14:15      4.5      134     10.1      127     92.4     93.1     91.6       22     1013     0.00      711     13.0
    08/24/2016 14:30      5.0      138     11.4      142     91.6     92.6     91.0       23     1012     0.00      673     13.0
    08/24/2016 14:45      4.6      132     10.7      117     91.7     92.2     91.3       22     1012     0.00      633     13.0
    08/24/2016 15:00      4.0      111      9.7       85     90.9     91.9     90.3       22     1012     0.00      589     13.0
    08/24/2016 15:15      4.3      103      8.7       98     90.7     91.7     90.2       23     1012     0.00      555     13.0
    08/24/2016 15:30      4.7      102      9.8       96     90.2     90.8     89.5       24     1012     0.00      496     13.0
    08/24/2016 15:45      4.3      112     11.6       81     89.2     89.6     88.5       25     1012     0.00      459     13.0
    08/24/2016 16:00      3.8      112     10.5       86     88.7     89.4     88.2       25     1012     0.00      415     13.0
    08/24/2016 16:15      3.5      113      9.5       84     88.1     88.7     87.6       25     1012     0.00      366     13.0
    08/24/2016 16:30      4.2       99      8.2       90     87.3     88.1     86.9       26     1012     0.00      319     13.0
    08/24/2016 16:45      2.6       96      6.0      105     87.2     87.5     86.9       27     1011     0.00      270     13.0
    08/24/2016 17:00      2.8      114      7.6      157     86.8     87.3     86.4       27     1011     0.00      218     13.0
    08/24/2016 17:15      2.2      122      4.7       90     86.0     86.7     85.2       28     1011     0.00      169     13.0
    08/24/2016 17:30      2.4      123      6.3       94     84.5     85.2     83.8       29     1011     0.00      127     13.0
    08/24/2016 17:45      3.4       80      6.5       74     83.0     83.9     82.1       30     1012     0.00       86     13.1
    08/24/2016 18:00      3.6       79      7.5       44     81.6     82.3     80.8       31     1012     0.00       50     13.1
    08/24/2016 18:15      4.1       80      8.3      101     80.2     81.0     79.5       31     1012     0.00       22     13.1
    08/24/2016 18:30      4.5       84      7.4       87     78.9     79.6     78.2       32     1012     0.00        7     13.1
    08/24/2016 18:45      5.0       79      8.2       82     77.8     78.3     77.2       33     1012     0.00        2     13.1
    08/24/2016 19:00      3.9       71      8.7       72     76.8     77.4     76.4       34     1012     0.00        0     13.2
    08/24/2016 19:15      3.3       70      6.4       50     76.2     76.6     75.8       36     1012     0.00        0     13.2
    08/24/2016 19:30      2.5       84      4.8       93     75.5     75.9     75.1       36     1012     0.00        0     13.2
    08/24/2016 19:45      3.5       75      6.4       74     74.7     75.2     74.2       39     1012     0.00        0     13.2
    08/24/2016 20:00      2.9       71      6.0       69     73.8     74.3     73.3       39     1013     0.00        0     13.2
    08/24/2016 20:15      3.7       55      7.3       64     72.8     73.4     72.3       41     1013     0.00        0     13.2
    08/24/2016 20:30      4.0       58      8.1       34     71.9     72.3     71.4       42     1013     0.00        0     13.2
    08/24/2016 20:45      3.1       60      6.0       43     71.3     71.7     70.9       45     1013     0.00        0     13.2
    08/24/2016 21:00      3.3       65      6.4       79     70.8     71.2     70.4       47     1013     0.00        0     13.2
    08/24/2016 21:15      3.5       68      7.0       62     70.3     70.6     70.0       47     1013     0.00        0     13.2
    08/24/2016 21:30      2.6       72      4.9       73     70.0     70.2     69.7       48     1013     0.00        0     13.3
    08/24/2016 21:45      2.8       77      5.5       59     69.8     70.0     69.6       49     1013     0.00        0     13.3
    08/24/2016 22:00      2.0       79      4.5       74     69.6     69.8     69.5       50     1013     0.00        0     13.3
    08/24/2016 22:15      2.6       82      5.0       69     69.5     69.7     69.3       51     1013     0.00        0     13.3
    08/24/2016 22:30      2.6       72      4.5       46     69.3     69.5     69.1       51     1013     0.00        0     13.3
    08/24/2016 22:45      2.0       72      4.3       82     69.1     69.4     68.8       52     1013     0.00        0     13.3
    08/24/2016 23:00      2.2       76      4.2       98     68.9     69.2     68.6       52     1013     0.00        0     13.3
    08/24/2016 23:15      1.8       82      3.7       86     68.7     68.9     68.4       52     1013     0.00        0     13.3
    08/24/2016 23:30      2.0       73      3.9       77     68.4     68.7     68.2       52     1013     0.00        0     13.3
    08/24/2016 23:45      1.5       71      3.6       63     68.2     68.4     68.0       53     1013     0.00        0     13.3
    08/25/2016 00:00      0.7       73      2.5       77     67.9     68.1     67.7       53     1013     0.00        0     13.3
    08/25/2016 00:15      0.5       81      2.0       80     67.7     68.0     67.5       53     1013     0.00        0     13.3
    08/25/2016 00:30      1.4       55      3.5       64     67.7     68.0     67.5       53     1013     0.00        0     13.3
    08/25/2016 00:45      1.4       63      3.6       63     67.6     67.9     67.3       54     1013     0.00        0     13.3
    08/25/2016 01:00      1.3       70      3.4       67     67.3     67.6     67.0       55     1013     0.00        0     13.3
    08/25/2016 01:15      1.1       66      2.9      101     66.9     67.2     66.6       57     1013     0.00        0     13.3
    08/25/2016 01:30      1.7       44      3.8       59     66.5     66.8     66.3       58     1013     0.00        0     13.3
    08/25/2016 01:45      1.2       69      3.0       36     66.3     66.5     66.1       59     1012     0.00        0     13.3
    08/25/2016 02:00      0.6       81      2.3       72     66.0     66.2     65.8       60     1012     0.00        0     13.3
    08/25/2016 02:15      0.0       60      0.4       57     65.4     66.1     64.5       65     1012     0.00        0     13.3
    08/25/2016 02:30      0.0        0      0.0        6     64.3     64.7     64.0       65     1012     0.00        0     13.3
    08/25/2016 02:45      0.0        0      0.0       13     63.9     64.4     63.6       67     1012     0.00        0     13.3
    08/25/2016 03:00      0.2      146      1.7      139     63.5     63.8     63.2       67     1012     0.00        0     13.4
    08/25/2016 03:15      0.0        0      0.0      137     63.5     63.8     63.3       66     1012     0.00        0     13.4
    08/25/2016 03:30      0.0        0      0.0      215     63.3     63.5     62.9       67     1012     0.00        0     13.4
    08/25/2016 03:45      0.0        0      0.0      212     63.0     63.2     62.7       68     1012     0.00        0     13.4
    08/25/2016 04:00      0.0        0      0.0      213     62.6     62.8     62.3       70     1012     0.00        0     13.4
    08/25/2016 04:15      0.0        0      0.0      213     62.6     62.8     62.4       69     1012     0.00        0     13.4
    08/25/2016 04:30      0.1       70      1.5       66     62.4     62.7     62.2       70     1013     0.00        0     13.4
    08/25/2016 04:45      0.0        0      0.0       55     62.4     62.7     62.1       70     1013     0.00        0     13.4
    08/25/2016 05:00      0.0       38      1.1       26     62.3     62.7     61.9       69     1013     0.00        0     13.4
    08/25/2016 05:15      1.3       40      2.7       22     63.0     63.5     62.5       65     1013     0.00        0     13.4
    08/25/2016 05:30      1.3       34      2.6       29     63.6     63.8     63.3       64     1013     0.00        3     13.4
    08/25/2016 05:45      1.3       32      2.9       23     63.8     64.0     63.5       64     1013     0.00       12     13.4
    08/25/2016 06:00      1.3       46      3.1       43     64.2     64.7     63.8       64     1013     0.00       25     13.4
    08/25/2016 06:15      1.7       49      3.4       34     64.9     65.2     64.5       64     1013     0.00       40     13.4
    08/25/2016 06:30      1.7       54      3.3       61     65.6     66.1     64.9       63     1013     0.00      105     13.3
    08/25/2016 06:45      2.0       66      3.9       79     66.6     67.2     66.1       61     1013     0.00      146     13.3
    08/25/2016 07:00      2.2       87      5.2       82     67.3     67.6     67.0       62     1013     0.00      191     13.3
    08/25/2016 07:15      2.1       82      4.5       69     68.0     68.6     67.5       62     1013     0.00      237     13.3
    08/25/2016 07:30      2.1       76      4.5       54     68.4     68.9     68.1       61     1013     0.00      286     13.3
    08/25/2016 07:45      2.1      103      4.3       68     69.0     69.5     68.6       61     1013     0.00      331     13.3
    08/25/2016 08:00      2.0      131      4.3      121     70.3     70.8     69.3       58     1013     0.00      379     13.2
    08/25/2016 08:15      1.8      109      5.5      144     71.0     71.4     70.6       56     1013     0.00      426     13.2
    08/25/2016 08:30      2.1      123      5.4      177     71.8     72.6     71.1       53     1013     0.00      472     13.2
    08/25/2016 08:45      2.5       63      5.6       52     71.9     72.4     71.5       54     1013     0.00      520     13.2
    08/25/2016 09:00      2.6      129      6.0      149     73.0     74.2     72.1       50     1013     0.00      563     13.2
    08/25/2016 09:15      2.1      124      6.3      152     73.8     74.3     73.4       50     1013     0.00      605     13.2
    08/25/2016 09:30      2.2      144      5.6       93     74.4     75.4     73.4       48     1013     0.00      644     13.1
    08/25/2016 09:45      2.8      103      5.7      166     75.9     76.8     75.1       46     1013     0.00      679     13.1
    08/25/2016 10:00      3.9      169      7.6      165     76.7     77.4     75.9       47     1013     0.00      710     13.1
    08/25/2016 10:15      2.3      117      5.6       69     77.6     78.4     77.0       44     1013     0.00      741     13.1
    08/25/2016 10:30      2.9      115      6.7      103     78.7     79.3     78.3       43     1013     0.00      768     13.1
    08/25/2016 10:45      3.1      112      7.5      171     79.8     81.3     78.8       41     1013     0.00      791     13.1
    08/25/2016 11:00      2.4      128      8.4      182     79.8     80.4     79.3       39     1012     0.00      808     13.1
    08/25/2016 11:15      2.8      129      7.5       80     81.6     82.7     80.3       36     1012     0.00      823     13.0
    08/25/2016 11:30      4.1      124     11.1      149     81.6     83.0     80.4       36     1012     0.00      834     13.0
    08/25/2016 11:45      2.9      137      9.1       97     82.5     83.2     82.0       37     1012     0.00      841     13.0
    08/25/2016 12:00      3.3      131      8.5      159     82.6     83.1     81.8       34     1012     0.00      841     13.0
    08/25/2016 12:15      4.6      142     12.8      157     83.6     84.9     82.8       33     1012     0.00      838     13.0
    08/25/2016 12:30      4.2      136     13.2      164     84.9     85.7     83.9       35     1011     0.00      836     13.0
    08/25/2016 12:45      4.4      122     11.2      153     83.7     84.5     83.1       35     1011     0.00      825     13.0
    08/25/2016 13:00      5.0      146      9.7       95     83.8     85.0     82.6       36     1011     0.00      811     13.0
    08/25/2016 13:15      5.9      139     13.2      148     84.0     84.7     83.1       39     1011     0.00      795     13.0
    08/25/2016 13:30      5.1      124     11.6       81     83.3     84.2     82.6       38     1011     0.00      776     13.0
    08/25/2016 13:45      5.3      129      9.4      114     83.1     84.2     82.3       39     1011     0.00      751     13.0
    08/25/2016 14:00      5.0      141     11.8      158     83.3     84.2     82.1       36     1011     0.00      724     13.0
    08/25/2016 14:15      5.7      135     11.0      139     83.7     84.8     82.6       38     1011     0.00      696     13.0
    08/25/2016 14:30      5.2      131     11.6      149     83.3     84.1     82.8       39     1011     0.00      662     13.0
    08/25/2016 14:45      4.8      125     11.0      158     82.8     83.5     82.3       38     1011     0.00      625     13.0
    08/25/2016 15:00      4.4      136     11.9      153     82.2     83.0     81.7       36     1011     0.00      585     13.0
    08/25/2016 15:15      4.5      136     10.2      140     82.4     82.9     81.8       35     1011     0.00      542     13.0
    08/25/2016 15:30      6.3      153     12.3      147     82.2     82.8     81.6       35     1010     0.00      481     13.0
    08/25/2016 15:45      4.5      134     11.9      114     81.8     82.9     80.9       36     1010     0.00      448     13.0
    08/25/2016 16:00      3.9      122      9.0      130     81.4     82.3     80.9       39     1010     0.00      402     13.0
    08/25/2016 16:15      4.8      149      9.6      209     81.3     81.7     80.9       39     1010     0.00      352     13.0
    08/25/2016 16:30      3.5      128      7.3      154     80.3     81.4     79.6       42     1010     0.00      306     13.0
    08/25/2016 16:45      4.2      139      8.4      153     79.7     80.1     78.9       44     1010     0.00      256     13.1
    08/25/2016 17:00      2.8      133      8.4      142     79.1     79.5     78.7       44     1010     0.00      210     13.1
    08/25/2016 17:15      4.1      145      9.1      137     78.8     79.2     78.3       46     1010     0.00      166     13.1
    08/25/2016 17:30      4.2      141      8.0      164     78.4     78.6     77.8       47     1010     0.00      123     13.1
    08/25/2016 17:45      4.2      150      7.5      132     77.4     78.0     76.6       49     1010     0.00       82     13.1
    08/25/2016 18:00      4.6      157      7.9      158     76.3     76.9     75.6       50     1010     0.00       47     13.1
    08/25/2016 18:15      3.7      139      6.6      154     75.1     75.7     74.5       53     1011     0.00       21     13.1
    08/25/2016 18:30      3.6      136      7.4      161     73.8     74.7     73.1       56     1011     0.00        7     13.2
    08/25/2016 18:45      3.0      140      7.1      145     72.8     73.3     72.5       58     1011     0.00        1     13.2
    08/25/2016 19:00      2.0      132      5.0      139     72.4     72.8     71.7       59     1011     0.00        0     13.2
    08/25/2016 19:15      1.5      140      4.0      136     71.6     72.0     71.2       60     1011     0.00        0     13.2
    08/25/2016 19:30      1.8      119      5.8      142     71.2     71.5     70.9       62     1011     0.00        0     13.2
    08/25/2016 19:45      1.6      123      5.0       46     70.8     71.2     70.3       63     1011     0.00        0     13.2
    08/25/2016 20:00      2.1      109      6.1       96     70.1     70.5     69.8       65     1011     0.00        0     13.3
    08/25/2016 20:15      1.6      121      4.7       83     69.5     69.9     69.0       66     1011     0.00        0     13.3
    08/25/2016 20:30      2.5       98      5.4       95     68.8     69.3     68.4       68     1011     0.00        0     13.3
    08/25/2016 20:45      1.8      140      5.0      146     68.2     68.7     67.7       69     1012     0.00        0     13.3
    08/25/2016 21:00      1.6      122      5.3      142     67.5     68.0     67.1       71     1012     0.00        0     13.3
    08/25/2016 21:15      2.7      148      4.9      147     66.8     67.2     66.5       72     1012     0.00        0     13.3
    08/25/2016 21:30      2.0      137      5.4      135     66.5     66.7     66.2       73     1012     0.00        0     13.3
    08/25/2016 21:45      1.8      109      5.1       88     66.1     66.4     65.8       74     1012     0.00        0     13.3
    08/25/2016 22:00      1.9       99      5.4       85     65.8     66.1     65.5       75     1012     0.00        0     13.3
    08/25/2016 22:15      1.3      123      4.5      138     65.4     65.8     65.1       75     1012     0.00        0     13.3
    08/25/2016 22:30      1.3      111      3.6       84     65.0     65.3     64.7       76     1012     0.00        0     13.3
    08/25/2016 22:45      1.1      133      4.2      151     64.7     64.8     64.5       77     1012     0.00        0     13.3
    08/25/2016 23:00      2.9      144      5.9      165     64.4     64.7     64.2       77     1012     0.00        0     13.3
    08/25/2016 23:15      2.8      126      6.9       95     64.2     64.4     63.9       78     1012     0.00        0     13.3
    08/25/2016 23:30      2.7       83      6.2       84     64.1     64.3     63.9       78     1012     0.00        0     13.3
    08/25/2016 23:45      2.5       99      7.0       77     64.1     64.3     63.8       79     1012     0.00        0     13.3
    08/26/2016 00:00      2.7       97      8.9       93     63.8     64.0     63.5       80     1012     0.00        0     13.3
    08/26/2016 00:15      1.8      130      5.7      112     63.9     64.1     63.6       79     1012     0.00        0     13.3
    08/26/2016 00:30      2.5      106      5.7       89     63.8     64.0     63.5       80     1012     0.00        0     13.3
    08/26/2016 00:45      1.9      104      4.0       51     63.7     63.9     63.5       80     1012     0.00        0     13.3
    08/26/2016 01:00      1.8      133      5.2      149     63.9     64.2     63.7       79     1012     0.00        0     13.3
    08/26/2016 01:15      1.1       90      3.7       94     64.1     64.3     63.9       78     1012     0.00        0     13.3
    08/26/2016 01:30      1.7      133      5.2      108     64.2     64.3     64.0       78     1012     0.00        0     13.3
    08/26/2016 01:45      2.1      116      6.3       78     64.3     64.5     64.1       78     1012     0.00        0     13.3
    08/26/2016 02:00      1.9       71      5.3       74     64.3     64.6     64.1       78     1012     0.00        0     13.3
    08/26/2016 02:15      1.5       73      3.9       70     64.5     64.7     64.1       77     1012     0.00        0     13.3
    08/26/2016 02:30      1.9      102      5.0       90     64.8     65.1     64.5       76     1012     0.00        0     13.3
    08/26/2016 02:45      1.9       97      4.8       96     65.0     65.2     64.8       76     1012     0.00        0     13.3
    08/26/2016 03:00      2.3      117      5.5       98     65.2     65.5     65.0       74     1012     0.00        0     13.3
    08/26/2016 03:15      2.4      106      6.8       82     65.3     65.5     65.2       73     1012     0.00        0     13.3
    08/26/2016 03:30      2.1       82      5.2       45     65.4     65.6     65.1       72     1012     0.00        0     13.3
    08/26/2016 03:45      1.5      106      5.3       98     65.4     65.6     65.1       72     1012     0.00        0     13.3
    08/26/2016 04:00      2.4       85      6.0       78     65.4     65.6     65.1       72     1012     0.00        0     13.3
    08/26/2016 04:15      1.7      119      4.7       91     65.4     65.6     65.1       72     1012     0.00        0     13.3
    08/26/2016 04:30      1.7      127      4.2       91     65.3     65.5     65.1       72     1012     0.00        0     13.3
    08/26/2016 04:45      2.3      139      4.4      144     65.2     65.5     64.8       72     1012     0.00        0     13.3
    08/26/2016 05:00      2.3      150      4.5      154     64.9     65.1     64.7       72     1012     0.00        0     13.3
    08/26/2016 05:15      2.7      144      6.0      163     64.7     64.8     64.5       72     1012     0.00        0     13.3
    08/26/2016 05:30      2.4      155      4.3      153     64.6     64.8     64.3       72     1012     0.00        1     13.3
    08/26/2016 05:45      2.2      148      4.2      147     64.7     65.0     64.4       71     1013     0.00        6     13.3
    08/26/2016 06:00      1.9      134      4.6      128     64.8     65.0     64.6       71     1013     0.00       15     13.3
    08/26/2016 06:15      2.9      147      6.0      137     64.7     65.0     64.6       71     1013     0.00       27     13.3
    08/26/2016 06:30      2.9      147      5.5      146     64.8     65.0     64.6       71     1013     0.00       43     13.3
    08/26/2016 06:45      1.9      139      5.5       72     65.1     65.3     64.7       71     1013     0.00       56     13.3
    08/26/2016 07:00      3.2      138      7.1      122     65.2     65.5     65.0       70     1013     0.00       73     13.3
    08/26/2016 07:15      1.9      129      4.4      108     65.3     65.5     65.0       70     1013     0.00       86     13.3
    08/26/2016 07:30      2.3      106      5.4       65     65.4     65.6     65.1       71     1013     0.00       93     13.3
    08/26/2016 07:45      2.2      133      5.1       65     65.8     66.2     65.5       70     1013     0.00      112     13.3
    08/26/2016 08:00      3.0      140      6.9      140     65.9     66.4     65.7       69     1013     0.00      140     13.3
    08/26/2016 08:15      2.4       77      5.9       93     65.8     66.4     65.5       70     1014     0.00      140     13.3
    08/26/2016 08:30      1.3      132      4.2      159     66.3     66.7     65.7       68     1014     0.00      153     13.3
    08/26/2016 08:45      2.7      114      5.5      149     66.3     66.8     65.9       68     1014     0.00      184     13.3
    08/26/2016 09:00      2.6      131      5.7      162     66.9     67.2     66.6       67     1014     0.00      211     13.3
    08/26/2016 09:15      3.0      143      6.6      176     66.9     67.2     66.4       66     1014     0.00      278     13.3
    08/26/2016 09:30      2.4      127      7.3      134     67.7     68.4     67.0       62     1014     0.00      392     13.2
    08/26/2016 09:45      2.3      153      7.1      168     68.5     69.0     68.0       61     1014     0.00      466     13.2
    08/26/2016 10:00      3.0      145      7.8      129     69.9     71.2     68.5       57     1014     0.00      750     13.2
    08/26/2016 10:15      2.7      129      7.1      147     70.9     71.7     70.0       56     1014     0.00      769     13.2
    08/26/2016 10:30      2.6      162      7.6      153     71.9     73.2     70.8       54     1014     0.00      796     13.1
    08/26/2016 10:45      3.9      155      9.3      147     72.5     73.1     71.5       54     1014     0.00      819     13.1
    08/26/2016 11:00      2.7      116      8.8       82     73.0     73.9     72.2       52     1014     0.00      841     13.1
    08/26/2016 11:15      4.3      159     10.9      152     74.5     75.5     73.5       48     1014     0.00      855     13.1
    08/26/2016 11:30      2.5      126      7.1      172     74.8     75.5     74.0       49     1014     0.00      872     13.1
    08/26/2016 11:45      3.2      109      8.8      145     75.2     76.5     74.6       46     1013     0.00      878     13.1
    08/26/2016 12:00      2.5      105      6.8       92     76.6     77.0     76.0       44     1013     0.00      878     13.1
    08/26/2016 12:15      3.4      146      7.6      164     78.0     79.0     76.6       42     1013     0.00      879     13.1
    08/26/2016 12:30      3.4      117      7.7      135     78.6     79.5     77.5       37     1013     0.00      878     13.1
    08/26/2016 12:45      3.0      139      9.3      144     78.8     79.5     78.3       33     1013     0.00      876     13.1
    08/26/2016 13:00      3.0      152      7.3      102     79.4     80.5     78.4       34     1013     0.00      860     13.0
    08/26/2016 13:15      2.8      109      7.0       95     80.2     81.1     79.6       33     1013     0.00      845     13.0
    08/26/2016 13:30      3.0       92      6.4       85     80.3     81.1     79.7       34     1012     0.00      824     13.0
    08/26/2016 13:45      3.4      131      9.3      147     81.9     82.7     80.5       32     1012     0.00      796     13.0
    08/26/2016 14:00      4.3      126      9.3      145     81.5     82.2     80.8       33     1012     0.00      767     13.0
    08/26/2016 14:15      4.3      131     10.5      148     82.2     82.9     81.1       31     1012     0.00      735     13.0
    08/26/2016 14:30      4.1      138      9.8      127     81.9     83.0     80.9       33     1012     0.00      701     13.0
    08/26/2016 14:45      4.1      118      9.9      175     82.1     82.8     81.5       34     1012     0.00      665     13.0
    08/26/2016 15:00      4.1      122     10.8      130     81.2     82.1     80.4       35     1011     0.00      621     13.0
    08/26/2016 15:15      4.3      121     10.4      130     80.8     81.2     80.2       37     1011     0.00      575     13.0
    08/26/2016 15:30      4.2      115     10.0       89     79.6     80.3     79.1       37     1011     0.00      512     13.0
    08/26/2016 15:45      4.2      105      9.7       90     78.9     79.5     78.5       40     1011     0.00      479     13.0
    08/26/2016 16:00      4.1      122     10.2      154     79.1     79.4     78.7       40     1011     0.00      431     13.0
    08/26/2016 16:15      3.6      120      8.8      146     78.5     79.4     77.4       42     1011     0.00      377     13.0
    08/26/2016 16:30      4.1      111      8.3      142     77.4     77.9     77.0       42     1011     0.00      326     13.0
    08/26/2016 16:45      3.8      111      9.2      175     76.8     77.2     76.4       43     1011     0.00      271     13.1
    08/26/2016 17:00      3.7      133     10.0      129     76.5     76.8     76.0       44     1011     0.00      220     13.1
    08/26/2016 17:15      3.4      112      8.9       96     75.2     76.0     74.5       48     1011     0.00      172     13.1
    08/26/2016 17:30      3.1      111      9.1      146     74.1     74.7     73.3       49     1011     0.00      120     13.1
    08/26/2016 17:45      2.9      116      6.5       74     72.9     73.7     72.4       51     1012     0.00       80     13.1
    08/26/2016 18:00      3.1       98      7.2       84     72.1     72.6     71.5       53     1012     0.00       45     13.2
    08/26/2016 18:15      3.0       98      8.5       81     71.3     71.8     70.6       55     1012     0.00       18     13.2
    08/26/2016 18:30      2.0      112      5.6       88     70.3     70.7     69.9       56     1012     0.00        6     13.2
    08/26/2016 18:45      1.4      128      4.5      152     69.7     70.1     69.3       57     1012     0.00        1     13.2
    08/26/2016 19:00      1.8      102      5.0       92     69.2     69.5     68.9       58     1012     0.00        0     13.2
    08/26/2016 19:15      1.7      105      4.5       92     68.7     69.1     68.3       60     1012     0.00        0     13.3
    08/26/2016 19:30      2.2       63      4.4       87     68.2     68.5     67.8       61     1012     0.00        0     13.3
    08/26/2016 19:45      2.4       63      5.7       36     67.8     68.1     67.4       62     1013     0.00        0     13.3
    08/26/2016 20:00      2.1       44      4.5       42     67.3     67.7     66.9       64     1013     0.00        0     13.3
    08/26/2016 20:15      2.1       84      5.3       92     66.9     67.3     66.5       64     1013     0.00        0     13.3
    08/26/2016 20:30      1.3       92      3.6       89     66.3     66.7     66.0       66     1013     0.00        0     13.3
    08/26/2016 20:45      1.4       82      3.6       86     65.8     66.2     65.5       67     1013     0.00        0     13.3
    08/26/2016 21:00      0.4      118      3.2       77     65.1     65.6     64.8       69     1013     0.00        0     13.3
    08/26/2016 21:15      1.3       83      3.7       72     64.8     65.0     64.7       69     1013     0.00        0     13.3
    08/26/2016 21:30      0.6      106      2.6       69     64.7     65.0     64.3       70     1013     0.00        0     13.3
    08/26/2016 21:45      1.4       97      3.6       72     64.5     64.7     64.2       71     1013     0.00        0     13.3
    08/26/2016 22:00      2.1       80      4.3       74     64.3     64.5     64.0       71     1013     0.00        0     13.3
    08/26/2016 22:15      2.0       82      3.4       84     64.0     64.2     63.9       72     1013     0.00        0     13.3
    08/26/2016 22:30      1.7       87      4.0       63     63.8     64.1     63.6       72     1013     0.00        0     13.3
    08/26/2016 22:45      1.2       97      3.8      100     63.6     63.8     63.3       73     1013     0.00        0     13.3
    08/26/2016 23:00      1.0       87      3.5       83     63.4     63.6     63.1       73     1013     0.00        0     13.3
    08/26/2016 23:15      2.0       88      4.8       89     63.1     63.4     62.9       74     1013     0.00        0     13.3
    08/26/2016 23:30      2.2       74      3.9       83     62.8     63.1     62.5       75     1013     0.00        0     13.4
    08/26/2016 23:45      1.5       62      4.4       63     62.5     62.9     62.1       76     1013     0.00        0     13.4
    08/27/2016 00:00      0.9       77      3.6       84     62.3     62.5     61.9       77     1013     0.00        0     13.4
    08/27/2016 00:15      1.8       90      3.5      117     61.9     62.4     61.7       77     1013     0.00        0     13.4
    08/27/2016 00:30      1.1      100      3.2       81     61.5     61.9     61.3       79     1013     0.00        0     13.4
    08/27/2016 00:45      1.8       88      4.1       76     61.2     61.5     61.0       80     1013     0.00        0     13.4
    08/27/2016 01:00      0.5      101      2.9       76     60.9     61.1     60.6       81     1013     0.00        0     13.4
    08/27/2016 01:15      0.8       98      2.6       97     60.7     60.9     60.5       82     1013     0.00        0     13.4
    08/27/2016 01:30      1.9       71      4.3       85     60.7     60.9     60.5       83     1013     0.00        0     13.4
    08/27/2016 01:45      2.0       66      4.9       58     60.8     61.0     60.6       83     1013     0.00        0     13.4
    08/27/2016 02:00      2.0       73      5.1       63     60.8     61.1     60.6       83     1013     0.00        0     13.4
    08/27/2016 02:15      0.9      114      3.4       97     60.9     61.1     60.7       83     1013     0.00        0     13.4
    08/27/2016 02:30      2.0       70      4.5       52     61.0     61.3     60.8       82     1013     0.00        0     13.4
    08/27/2016 02:45      1.6       63      4.1       34     61.2     61.4     61.0       82     1013     0.00        0     13.4
    08/27/2016 03:00      1.1      131      3.2       36     61.3     61.6     61.1       81     1013     0.00        0     13.4
    08/27/2016 03:15      1.2      150      3.2      141     61.5     61.8     61.3       80     1013     0.00        0     13.4
    08/27/2016 03:30      2.4      162      3.7      160     61.5     61.7     61.3       80     1013     0.00        0     13.4
    08/27/2016 03:45      1.4       18      3.7       19     61.6     61.8     61.4       79     1013     0.00        0     13.4
    08/27/2016 04:00      1.0      333      2.9      339     61.4     61.6     61.2       80     1013     0.00        0     13.4
    08/27/2016 04:15      1.1      302      2.7      350     61.6     61.8     61.3       80     1013     0.00        0     13.3
    08/27/2016 04:30      1.0      309      3.9      344     61.6     61.9     61.4       79     1013     0.00        0     13.3
    08/27/2016 04:45      0.3      244      1.3      175     61.6     61.7     61.4       79     1013     0.00        0     13.3
    08/27/2016 05:00      1.4      192      3.7      200     61.6     61.9     61.4       80     1013     0.00        0     13.3
    08/27/2016 05:15      1.9      228      3.6      154     61.6     61.8     61.4       79     1013     0.00        0     13.3
    08/27/2016 05:30      1.0      297      2.4      285     61.9     62.2     61.6       78     1013     0.00        0     13.3
    08/27/2016 05:45      0.9      258      2.6      256     62.1     62.4     61.9       78     1014     0.00        4     13.3
    08/27/2016 06:00      1.6      157      3.9      147     62.3     62.5     62.0       78     1014     0.00       10     13.3
    08/27/2016 06:15      0.7      158      2.5      165     62.4     62.6     62.1       77     1014     0.00       19     13.3
    08/27/2016 06:30      1.3      187      4.3      178     62.6     62.9     62.4       77     1014     0.00       26     13.3
    08/27/2016 06:45      0.7      223      3.2      154     62.5     62.8     62.3       76     1014     0.00       35     13.3
    08/27/2016 07:00      1.2      185      2.6      193     62.8     63.1     62.5       76     1014     0.00       45     13.3
    08/27/2016 07:15      1.9      153      5.1      148     63.1     63.4     62.8       76     1014     0.00       56     13.3
    08/27/2016 07:30      2.0      105      4.5      138     63.3     63.5     63.0       75     1014     0.00       68     13.3
    08/27/2016 07:45      1.3      118      4.7       87     63.6     63.9     63.3       74     1014     0.00       77     13.3
    08/27/2016 08:00      1.8      157      4.3      125     63.6     63.8     63.4       74     1015     0.00       79     13.3
    08/27/2016 08:15      0.6      209      2.8      178     63.8     64.0     63.4       73     1015     0.00       87     13.3
    08/27/2016 08:30      1.8      170      3.9      199     64.0     64.2     63.7       74     1015     0.00       92     13.3
    08/27/2016 08:45      2.2      154      5.0      167     64.4     64.9     63.9       71     1015     0.00      121     13.3
    08/27/2016 09:00      2.0      166      5.6      163     65.1     65.5     64.7       70     1015     0.00      181     13.3
    08/27/2016 09:15      2.2      163      5.9      183     65.3     65.6     65.1       68     1015     0.00      221     13.3
    08/27/2016 09:30      3.1      177      6.4      187     65.4     65.8     64.9       68     1015     0.00      236     13.3
    08/27/2016 09:45      2.4      173      6.2      159     66.4     66.9     65.6       66     1015     0.00      302     13.3
    08/27/2016 10:00      0.8      342      4.8      206     66.5     67.7     65.9       64     1015     0.00      363     13.2
    08/27/2016 10:15      2.7      200      8.2      201     68.2     68.9     67.5       63     1015     0.00      445     13.2
    08/27/2016 10:30      2.7      222      7.6      182     68.3     69.2     67.2       61     1015     0.00      712     13.2
    08/27/2016 10:45      2.7      132      6.7      168     69.6     71.2     68.5       58     1015     0.00      833     13.2
    08/27/2016 11:00      2.4      164      5.7      178     71.2     72.4     70.3       55     1015     0.00      846     13.1
    08/27/2016 11:15      2.5      181      7.3      133     72.4     72.8     71.8       53     1014     0.00      857     13.1
    08/27/2016 11:30      3.2      228      7.8      185     71.7     72.7     70.6       55     1014     0.00      857     13.1
    08/27/2016 11:45      1.8      238      5.1       21     72.5     73.3     71.4       52     1014     0.00      869     13.1
    08/27/2016 12:00      3.5      148      9.2      138     74.0     75.3     72.6       50     1014     0.00      867     13.1
    08/27/2016 12:15      2.2      182      7.7      146     75.8     76.4     75.1       47     1014     0.00      871     13.1
    08/27/2016 12:30      2.9      155      8.1      146     77.0     78.0     76.2       45     1014     0.00      868     13.1
    08/27/2016 12:45      2.8      148      6.4      151     77.6     78.3     77.0       44     1014     0.00      853     13.1
    08/27/2016 13:00      2.2      142      5.6      164     78.0     78.9     77.1       41     1013     0.00      844     13.1
    08/27/2016 13:15      1.9      187      5.0      210     79.2     80.2     78.3       40     1013     0.00      826     13.0
    08/27/2016 13:30      1.9      192      5.4      188     79.2     80.0     78.6       41     1013     0.00      805     13.0
    08/27/2016 13:45      1.9      170      5.1      175     80.3     81.3     78.7       39     1013     0.00      663     13.0
    08/27/2016 14:00      3.7      183      7.1      153     82.0     82.5     81.0       36     1013     0.00      754     13.0
    08/27/2016 14:15      1.3        6      3.9      296     81.8     83.1     80.6       35     1012     0.00      725     13.0
    08/27/2016 14:30      1.6      267      5.8      234     83.3     83.8     82.6       33     1012     0.00      693     13.0
    08/27/2016 14:45      2.6      304      6.0      344     83.0     83.5     82.5       34     1012     0.00      654     13.0
    08/27/2016 15:00      2.5      249      6.5      207     84.4     85.1     82.6       33     1012     0.00      617     13.0
    08/27/2016 15:15      4.2      211      9.7      180     83.7     84.2     83.3       33     1012     0.00      574     13.0
    08/27/2016 15:30      2.8      222      7.1      237     84.3     85.0     83.6       33     1012     0.00      518     13.0
    08/27/2016 15:45      3.3      219      7.4      196     84.0     84.7     83.4       34     1012     0.00      482     13.0
    08/27/2016 16:00      3.0      243      9.6      250     83.1     84.5     82.2       36     1012     0.00      439     13.0
    08/27/2016 16:15      2.4      231      7.2      244     83.3     83.8     82.7       34     1012     0.00      390     13.0
    08/27/2016 16:30      2.2      236      5.1      242     82.8     83.4     82.4       35     1012     0.00      338     13.0